WBGS Airport Informations

Runway Information
Runway 13 Length 9036 ft width 148 ft
Elevation 92 ft Threshold ft Heading 130
Runway 31 Length 9036 ft Width 148 ft
Elevation 116 ft Threshold ft Heading 310
Airport Frequencies
Type APP Name APP Frequency 122.6 MHZ
Type ATIS Name ATIS Frequency 127.65 MHZ
Type GND Name GND Frequency 121.9 MHZ
Type TWR Name TWR Frequency 122.6 MHZ
Airport Navaids
Type NDB Name Sibu Frequency 203 KHZ
Type VOR-DME Name Sibu Frequency 112200 KHZ
Airport Weather Information & NOTAM
ADDS - METARS form results

(2105 UTC 19 August 2022)
Data provider http://aviationweather.gov/metar/data/
 
Forecast for: WBGS (SIBU , MY)
Text: TAF WBGS 191700Z 1918/2018 VRB03KT 9999 SCT018
Forecast period: 1800 UTC 19 August 2022 to 1800 UTC 20 August 2022
Forecast type: FROM: standard forecast or significant change
Winds: variable direction winds at 3 MPH (3 knots; 1.5 m/s)
Visibility: 6 or more miles (10+ km)
Ceiling: at least 12,000 feet AGL
Clouds: scattered clouds at 1800 feet AGL
Weather: no significant weather forecast for this period
Text: TEMPO 2006/2010 33010KT 5000 TSRA FEW015CB
Forecast period: 0600 to 1000 UTC 20 August 2022
Forecast type: TEMPORARY: The following changes expected for less than half the time period
Winds: from the NNW (330 degrees) at 12 MPH (10 knots; 5.1 m/s)
Visibility: 3 miles (5 km)
Ceiling: at least 12,000 feet AGL
Clouds: few clouds at 1500 feet AGL
Weather: TSRA  (rain associated with thunderstorm(s))